Orbital elements of FENGYUN 1C DEB
| Launched | 9 May 1999 |
| Flight ended | – |
| Launch site | Taiyuan Space Center, PRC |
| Owner | People's Republic of China |
| NORAD ID | 31536 |
| Date fetched |
Epoch osculation |
Inc. [°] |
Ecc. | RA asc node [hr] |
Arg Peri. [°] |
Mean anom [°] |
Mean motion [rev/day] |
Abs. mag |
| Date fetched |
Epoch osculation |
Inc. [°] |
Ecc. | RA asc node [hr] |
Arg Peri. [°] |
Mean anom [°] |
Mean motion [rev/day] |
Abs. mag |
| 2026 May 06 17:57 | 2026 May 05 11:54:04 | 98.2311 | 0.02858 | 2.4115 | 59.4402 | 303.4665 | 14.57234 | – |
| 2026 May 05 17:57 | 2026 May 05 11:54:04 | 98.2311 | 0.02858 | 2.4115 | 59.4402 | 303.4665 | 14.57234 | – |
| 2026 May 04 17:57 | 2026 Apr 30 11:35:56 | 98.2318 | 0.02863 | 2.0808 | 74.9191 | 303.4665 | 14.57234 | – |
| 2026 May 03 17:57 | 2026 Apr 30 11:35:56 | 98.2318 | 0.02863 | 2.0808 | 74.9191 | 303.4665 | 14.57234 | – |
| 2026 May 02 17:57 | 2026 Apr 30 11:35:56 | 98.2318 | 0.02863 | 2.0808 | 74.9191 | 303.4665 | 14.57234 | – |
| 2026 May 01 17:56 | 2026 Apr 30 11:35:56 | 98.2318 | 0.02863 | 2.0808 | 74.9191 | 303.4665 | 14.57234 | – |
| 2026 Apr 30 17:56 | 2026 Apr 30 11:35:56 | 98.2318 | 0.02863 | 2.0808 | 74.9191 | 303.4665 | 14.57234 | – |
| 2026 Apr 29 17:57 | 2026 Apr 23 13:08:16 | 98.2311 | 0.02865 | 1.6233 | 96.3376 | 303.4665 | 14.57234 | – |
| 2026 Apr 28 17:56 | 2026 Apr 23 13:08:16 | 98.2311 | 0.02865 | 1.6233 | 96.3376 | 303.4665 | 14.57234 | – |
| 2026 Apr 27 17:58 | 2026 Apr 23 13:08:16 | 98.2311 | 0.02865 | 1.6233 | 96.3376 | 303.4665 | 14.57234 | – |
| 2026 Apr 26 17:58 | 2026 Apr 23 13:08:16 | 98.2311 | 0.02865 | 1.6233 | 96.3376 | 303.4665 | 14.57234 | – |
| 2026 Apr 25 17:58 | 2026 Apr 23 13:08:16 | 98.2311 | 0.02865 | 1.6233 | 96.3376 | 303.4665 | 14.57234 | – |
| 2026 Apr 24 17:59 | 2026 Apr 23 13:08:16 | 98.2311 | 0.02865 | 1.6233 | 96.3376 | 303.4665 | 14.57234 | – |
| 2026 Apr 23 17:57 | 2026 Apr 19 05:17:54 | 98.2318 | 0.02865 | 1.3379 | 109.7097 | 303.4665 | 14.57234 | – |
| 2026 Apr 22 17:57 | 2026 Apr 19 05:17:54 | 98.2318 | 0.02865 | 1.3379 | 109.7097 | 303.4665 | 14.57234 | – |
| 2026 Apr 21 17:57 | 2026 Apr 19 05:17:54 | 98.2318 | 0.02865 | 1.3379 | 109.7097 | 303.4665 | 14.57234 | – |
| 2026 Apr 20 17:57 | 2026 Apr 19 05:17:54 | 98.2318 | 0.02865 | 1.3379 | 109.7097 | 303.4665 | 14.57234 | – |
| 2026 Apr 19 17:58 | 2026 Apr 19 05:17:54 | 98.2318 | 0.02865 | 1.3379 | 109.7097 | 303.4665 | 14.57234 | – |
| 2026 Apr 18 17:56 | 2026 Apr 12 11:45:46 | 98.2317 | 0.02863 | 0.8940 | 130.5388 | 303.4665 | 14.57234 | – |
| 2026 Apr 16 17:57 | 2026 Apr 12 11:45:46 | 98.2317 | 0.02863 | 0.8940 | 130.5388 | 303.4665 | 14.57234 | – |
| 2026 Apr 14 17:57 | 2026 Apr 12 11:45:46 | 98.2317 | 0.02863 | 0.8940 | 130.5388 | 303.4665 | 14.57234 | – |
| 2026 Apr 13 17:57 | 2026 Apr 12 11:45:46 | 98.2317 | 0.02863 | 0.8940 | 130.5388 | 303.4665 | 14.57234 | – |
| 2026 Apr 12 17:57 | 2026 Apr 07 16:22:31 | 98.2313 | 0.02862 | 0.5769 | 145.4119 | 303.4665 | 14.57234 | – |
| 2026 Apr 11 17:57 | 2026 Apr 07 16:22:31 | 98.2313 | 0.02862 | 0.5769 | 145.4119 | 303.4665 | 14.57234 | – |
| 2026 Apr 10 17:58 | 2026 Apr 07 16:22:31 | 98.2313 | 0.02862 | 0.5769 | 145.4119 | 303.4665 | 14.57234 | – |
| 2026 Apr 09 18:01 | 2026 Apr 07 16:22:31 | 98.2313 | 0.02862 | 0.5769 | 145.4119 | 303.4665 | 14.57234 | – |